createdAt,value
2022-09-06T00:00:00.268Z,15.53
2022-09-06T00:01:07.899Z,15.58
2022-09-06T00:02:09.442Z,15.61
2022-09-06T00:03:10.911Z,15.55
2022-09-06T00:04:15.452Z,15.50
2022-09-06T00:05:17.215Z,15.45
2022-09-06T00:06:20.226Z,15.48
2022-09-06T00:07:21.713Z,15.44
2022-09-06T00:08:23.264Z,15.42
2022-09-06T00:09:24.770Z,15.40
2022-09-06T00:10:26.906Z,15.34
2022-09-06T00:11:28.475Z,15.35
2022-09-06T00:12:29.990Z,15.35
2022-09-06T00:13:31.821Z,15.39
2022-09-06T00:14:33.314Z,15.39
2022-09-06T00:15:36.518Z,15.29
2022-09-06T00:16:38.089Z,15.23
2022-09-06T00:17:39.693Z,15.24
2022-09-06T00:18:42.289Z,15.26
2022-09-06T00:19:43.831Z,15.29
2022-09-06T00:20:45.327Z,15.28
2022-09-06T00:21:46.893Z,15.27
2022-09-06T00:22:48.392Z,15.29
2022-09-06T00:23:50.821Z,15.28
2022-09-06T00:24:52.310Z,15.33
2022-09-06T00:25:53.804Z,15.39
2022-09-06T00:26:55.257Z,15.24
2022-09-06T00:28:01.697Z,15.04
2022-09-06T00:29:03.222Z,15.10
2022-09-06T00:30:05.247Z,15.17
2022-09-06T00:31:15.016Z,15.25
2022-09-06T00:32:16.679Z,15.21
2022-09-06T00:33:18.171Z,15.23
2022-09-06T00:34:20.729Z,15.03
2022-09-06T00:35:24.115Z,14.88
2022-09-06T00:36:25.599Z,14.79
2022-09-06T00:37:27.104Z,14.62
2022-09-06T00:38:28.612Z,14.52
2022-09-06T00:39:30.249Z,14.47
2022-09-06T00:40:34.106Z,14.49
2022-09-06T00:41:35.648Z,14.46
2022-09-06T00:42:37.237Z,14.44
2022-09-06T00:43:39.135Z,14.48
2022-09-06T00:44:41.122Z,14.53
2022-09-06T00:45:42.652Z,14.61
2022-09-06T00:46:47.832Z,14.61
2022-09-06T00:47:49.636Z,14.62
2022-09-06T00:48:56.244Z,14.64
2022-09-06T00:49:59.799Z,14.62
2022-09-06T00:51:04.036Z,14.58
2022-09-06T00:52:11.640Z,14.37
2022-09-06T00:53:13.314Z,14.33
2022-09-06T00:54:14.997Z,14.19
2022-09-06T00:55:17.077Z,14.13
2022-09-06T00:56:18.928Z,14.11
2022-09-06T00:57:20.567Z,14.13
2022-09-06T00:58:22.979Z,14.07
2022-09-06T00:59:26.982Z,14.04
2022-09-06T01:00:28.650Z,14.06
2022-09-06T01:01:30.330Z,14.08
2022-09-06T01:02:32.040Z,14.08
2022-09-06T01:03:35.029Z,14.18
2022-09-06T01:04:39.183Z,14.19
2022-09-06T01:05:59.031Z,14.25
2022-09-06T01:07:15.310Z,14.17
2022-09-06T01:08:31.907Z,14.18
2022-09-06T01:09:57.662Z,14.24
2022-09-06T01:11:21.455Z,14.29
2022-09-06T01:12:31.332Z,14.30
2022-09-06T01:13:43.163Z,14.26
2022-09-06T01:15:09.237Z,14.15
2022-09-06T01:16:29.457Z,14.13
2022-09-06T01:17:55.688Z,14.11
2022-09-06T01:19:20.955Z,14.06
2022-09-06T01:20:41.829Z,14.02
2022-09-06T01:22:01.322Z,14.04
2022-09-06T01:23:12.174Z,14.05
2022-09-06T01:24:44.787Z,14.02
2022-09-06T01:26:20.404Z,14.04
2022-09-06T01:27:47.890Z,14.06
2022-09-06T01:28:51.087Z,14.07
2022-09-06T01:30:00.780Z,14.12
2022-09-06T01:31:23.721Z,14.22
2022-09-06T01:32:32.437Z,14.23
2022-09-06T01:33:48.838Z,14.25
2022-09-06T01:35:06.812Z,14.28
2022-09-06T01:36:13.810Z,14.27
2022-09-06T01:37:19.347Z,14.31
2022-09-06T01:38:21.036Z,14.32
2022-09-06T01:39:29.878Z,14.33
2022-09-06T01:40:31.884Z,14.32
2022-09-06T01:41:33.603Z,14.34
2022-09-06T01:42:35.655Z,14.34
2022-09-06T01:43:41.457Z,14.35
2022-09-06T01:44:48.712Z,14.36
2022-09-06T01:46:16.400Z,14.40
2022-09-06T01:47:41.725Z,14.36
2022-09-06T01:49:11.068Z,14.29
2022-09-06T01:50:35.602Z,14.32
2022-09-06T01:51:55.529Z,14.34
2022-09-06T01:53:17.936Z,14.38
2022-09-06T01:54:32.302Z,14.37
2022-09-06T01:55:58.823Z,14.39
2022-09-06T01:57:18.807Z,14.44
2022-09-06T01:58:41.650Z,14.45
2022-09-06T02:00:18.070Z,14.47
2022-09-06T02:01:28.704Z,14.56
2022-09-06T02:02:46.202Z,14.56
2022-09-06T02:04:13.543Z,14.35
2022-09-06T02:05:57.605Z,13.95
2022-09-06T02:07:20.157Z,13.80
2022-09-06T02:08:33.809Z,13.67
2022-09-06T02:09:39.357Z,13.57
2022-09-06T02:10:51.197Z,13.61
2022-09-06T02:12:00.829Z,13.71
2022-09-06T02:13:05.777Z,13.80
2022-09-06T02:14:14.585Z,13.92
2022-09-06T02:15:22.758Z,14.03
2022-09-06T02:16:27.373Z,14.12
2022-09-06T02:17:37.677Z,14.07
2022-09-06T02:18:56.193Z,13.84
2022-09-06T02:20:09.690Z,13.79
2022-09-06T02:21:15.285Z,13.80
2022-09-06T02:22:21.215Z,13.69
2022-09-06T02:23:26.083Z,13.63
2022-09-06T02:24:31.083Z,13.65
2022-09-06T02:25:44.002Z,13.68
2022-09-06T02:26:46.295Z,13.67
2022-09-06T02:27:47.973Z,13.77
2022-09-06T02:28:49.925Z,13.88
2022-09-06T02:29:51.494Z,13.93
2022-09-06T02:30:58.282Z,13.96
2022-09-06T02:32:20.032Z,14.03
2022-09-06T02:33:25.909Z,14.05
2022-09-06T02:34:27.539Z,13.97
2022-09-06T02:35:29.549Z,13.90
2022-09-06T02:36:32.588Z,13.80
2022-09-06T02:37:34.426Z,13.78
2022-09-06T02:38:39.895Z,13.77
2022-09-06T02:39:41.446Z,13.78
2022-09-06T02:40:45.529Z,13.79
2022-09-06T02:41:47.529Z,13.83
2022-09-06T02:42:49.019Z,13.86
2022-09-06T02:43:50.547Z,13.81
2022-09-06T02:44:52.082Z,13.81
2022-09-06T02:45:53.618Z,13.81
2022-09-06T02:46:57.257Z,13.82
2022-09-06T02:47:58.948Z,13.75
2022-09-06T02:49:00.515Z,13.77
2022-09-06T02:50:02.134Z,13.80
2022-09-06T02:51:08.218Z,13.74
2022-09-06T02:52:09.924Z,13.73
2022-09-06T02:53:13.943Z,13.73
2022-09-06T02:54:15.458Z,13.70
2022-09-06T02:55:16.943Z,13.71
2022-09-06T02:56:18.488Z,13.68
2022-09-06T02:57:19.954Z,13.69
2022-09-06T02:58:21.467Z,13.73
2022-09-06T02:59:23.041Z,13.75
2022-09-06T03:00:25.038Z,13.74
2022-09-06T03:01:26.921Z,13.77
2022-09-06T03:02:28.486Z,13.77
2022-09-06T03:03:30.005Z,13.79
2022-09-06T03:04:31.565Z,13.75
2022-09-06T03:05:33.392Z,13.80
2022-09-06T03:06:35.106Z,13.81
2022-09-06T03:07:36.607Z,13.83
2022-09-06T03:08:38.128Z,13.81
2022-09-06T03:09:39.684Z,13.84
2022-09-06T03:10:41.149Z,13.84
2022-09-06T03:11:42.897Z,13.84
2022-09-06T03:12:45.112Z,13.85
2022-09-06T03:13:46.652Z,13.87
2022-09-06T03:14:50.957Z,13.90
2022-09-06T03:15:57.684Z,13.89
2022-09-06T03:16:59.221Z,13.89
2022-09-06T03:18:00.783Z,13.90
2022-09-06T03:19:02.388Z,13.88
2022-09-06T03:20:05.256Z,13.89
2022-09-06T03:21:06.750Z,13.93
2022-09-06T03:22:08.223Z,13.91
2022-09-06T03:23:09.827Z,13.93
2022-09-06T03:24:11.300Z,13.88
2022-09-06T03:25:12.807Z,13.84
2022-09-06T03:26:14.329Z,13.83
2022-09-06T03:27:15.843Z,13.85
2022-09-06T03:28:18.453Z,13.86
2022-09-06T03:29:19.931Z,13.84
2022-09-06T03:30:21.418Z,13.77
2022-09-06T03:31:22.970Z,13.79
2022-09-06T03:32:24.883Z,13.76
2022-09-06T03:33:26.645Z,13.76
2022-09-06T03:34:28.133Z,13.70
2022-09-06T03:35:29.757Z,13.68
2022-09-06T03:36:31.265Z,13.67
2022-09-06T03:37:32.739Z,13.63
2022-09-06T03:38:34.280Z,13.58
2022-09-06T03:39:35.870Z,13.54
2022-09-06T03:40:37.426Z,13.53
2022-09-06T03:41:38.915Z,13.47
2022-09-06T03:42:40.433Z,13.48
2022-09-06T03:43:41.912Z,13.44
2022-09-06T03:44:43.388Z,13.44
2022-09-06T03:45:50.327Z,13.42
2022-09-06T03:46:51.823Z,13.47
2022-09-06T03:47:53.346Z,13.43
2022-09-06T03:48:54.839Z,13.43
2022-09-06T03:49:56.319Z,13.41
2022-09-06T03:50:58.860Z,13.39
2022-09-06T03:52:00.453Z,13.35
2022-09-06T03:53:01.962Z,13.34
2022-09-06T03:54:03.507Z,13.35
2022-09-06T03:55:06.479Z,13.37
2022-09-06T03:56:07.980Z,13.30
2022-09-06T03:57:10.174Z,13.32
2022-09-06T03:58:11.817Z,13.38
2022-09-06T03:59:13.325Z,13.42
2022-09-06T04:00:15.404Z,13.43
2022-09-06T04:01:17.042Z,13.43
2022-09-06T04:02:18.602Z,13.41
2022-09-06T04:03:20.122Z,13.25
2022-09-06T04:04:21.640Z,13.23
2022-09-06T04:05:23.114Z,13.14
2022-09-06T04:06:24.602Z,13.06
2022-09-06T04:07:26.102Z,13.03
2022-09-06T04:08:28.309Z,13.04
2022-09-06T04:09:29.857Z,13.04
2022-09-06T04:10:32.101Z,13.08
2022-09-06T04:11:33.593Z,13.15
2022-09-06T04:12:35.286Z,13.15
2022-09-06T04:13:37.261Z,13.18
2022-09-06T04:14:38.780Z,13.18
2022-09-06T04:15:40.277Z,13.16
2022-09-06T04:16:41.904Z,13.13
2022-09-06T04:17:44.629Z,13.08
2022-09-06T04:18:46.115Z,13.02
2022-09-06T04:19:47.631Z,13.00
2022-09-06T04:20:50.662Z,12.93
2022-09-06T04:21:52.151Z,12.94
2022-09-06T04:22:53.651Z,13.03
2022-09-06T04:23:55.244Z,13.06
2022-09-06T04:24:56.802Z,13.10
2022-09-06T04:25:59.621Z,13.07
2022-09-06T04:27:01.127Z,13.04
2022-09-06T04:28:02.855Z,13.06
2022-09-06T04:29:04.358Z,13.01
2022-09-06T04:30:06.544Z,13.02
2022-09-06T04:31:08.036Z,13.03
2022-09-06T04:32:09.655Z,12.99
2022-09-06T04:33:11.494Z,12.96
2022-09-06T04:34:12.970Z,12.95
2022-09-06T04:35:14.508Z,12.97
2022-09-06T04:36:16.007Z,12.97
2022-09-06T04:37:17.531Z,12.99
2022-09-06T04:38:19.351Z,13.04
2022-09-06T04:39:20.840Z,13.01
2022-09-06T04:40:22.343Z,13.05
2022-09-06T04:41:23.854Z,13.08
2022-09-06T04:42:25.367Z,13.13
2022-09-06T04:43:26.949Z,13.23
2022-09-06T04:44:28.447Z,13.30
2022-09-06T04:45:30.041Z,13.32
2022-09-06T04:46:31.623Z,13.33
2022-09-06T04:47:33.180Z,13.29
2022-09-06T04:48:34.911Z,13.26
2022-09-06T04:49:36.438Z,13.27
2022-09-06T04:50:38.199Z,13.27
2022-09-06T04:51:39.763Z,13.32
2022-09-06T04:52:41.247Z,13.34
2022-09-06T04:53:42.976Z,13.38
2022-09-06T04:54:45.432Z,13.41
2022-09-06T04:55:46.976Z,13.42
2022-09-06T04:56:48.456Z,13.44
2022-09-06T04:57:51.362Z,13.52
2022-09-06T04:58:54.733Z,13.58
2022-09-06T04:59:56.276Z,13.62
2022-09-06T05:00:57.823Z,13.65
2022-09-06T05:01:59.538Z,13.71
2022-09-06T05:03:01.352Z,13.83
2022-09-06T05:04:02.926Z,13.88
2022-09-06T05:05:04.708Z,13.93
2022-09-06T05:06:10.393Z,14.04
2022-09-06T05:07:11.957Z,14.19
2022-09-06T05:08:13.484Z,14.33
2022-09-06T05:09:15.016Z,14.47
2022-09-06T05:10:16.560Z,14.63
2022-09-06T05:11:18.224Z,14.77
2022-09-06T05:12:19.729Z,14.92
2022-09-06T05:13:21.217Z,15.03
2022-09-06T05:14:23.216Z,15.10
2022-09-06T05:15:24.792Z,15.14
2022-09-06T05:16:26.428Z,15.09
2022-09-06T05:17:27.960Z,15.09
2022-09-06T05:18:29.640Z,15.11
2022-09-06T05:19:31.227Z,15.10
2022-09-06T05:20:32.911Z,15.14
2022-09-06T05:21:34.432Z,15.14
2022-09-06T05:22:36.399Z,15.20
2022-09-06T05:23:37.939Z,15.22
2022-09-06T05:24:39.430Z,15.18
2022-09-06T05:25:40.912Z,15.22
2022-09-06T05:26:42.416Z,15.21
2022-09-06T05:27:43.872Z,15.25
2022-09-06T05:28:45.334Z,15.26
2022-09-06T05:29:46.832Z,15.30
2022-09-06T05:30:48.357Z,15.34
2022-09-06T05:31:50.170Z,15.33
2022-09-06T05:32:51.753Z,15.37
2022-09-06T05:33:54.226Z,15.42
2022-09-06T05:34:55.781Z,15.52
2022-09-06T05:35:57.265Z,15.68
2022-09-06T05:36:58.731Z,15.80
2022-09-06T05:38:00.306Z,15.92
2022-09-06T05:39:01.815Z,16.04
2022-09-06T05:40:03.708Z,16.14
2022-09-06T05:41:05.269Z,16.24
2022-09-06T05:42:06.925Z,16.27
2022-09-06T05:43:08.430Z,16.29
2022-09-06T05:44:09.903Z,16.19
2022-09-06T05:45:11.372Z,16.18
2022-09-06T05:46:13.396Z,16.17
2022-09-06T05:47:14.980Z,16.16
2022-09-06T05:48:16.504Z,16.15
2022-09-06T05:49:18.133Z,16.12
2022-09-06T05:50:19.854Z,16.14
2022-09-06T05:51:21.765Z,16.20
2022-09-06T05:52:23.287Z,16.24
2022-09-06T05:53:24.952Z,16.27
2022-09-06T05:54:26.475Z,16.30
2022-09-06T05:55:27.945Z,16.32
2022-09-06T05:56:29.751Z,16.29
2022-09-06T05:57:31.320Z,16.27
2022-09-06T05:58:33.036Z,16.29
2022-09-06T05:59:34.551Z,16.29
2022-09-06T06:00:36.064Z,16.27
2022-09-06T06:01:37.595Z,16.26
2022-09-06T06:02:39.195Z,16.26
2022-09-06T06:03:40.876Z,16.26
2022-09-06T06:04:42.377Z,16.27
2022-09-06T06:05:47.353Z,16.41
2022-09-06T06:06:49.256Z,16.41
2022-09-06T06:07:50.780Z,16.54
2022-09-06T06:08:52.306Z,16.76
2022-09-06T06:09:53.830Z,16.93
2022-09-06T06:10:58.978Z,17.14
2022-09-06T06:12:00.455Z,17.33
2022-09-06T06:13:02.094Z,17.37
2022-09-06T06:14:04.703Z,17.50
2022-09-06T06:15:06.731Z,17.78
2022-09-06T06:16:10.260Z,18.11
2022-09-06T06:17:11.766Z,18.34
2022-09-06T06:18:13.233Z,18.63
2022-09-06T06:19:14.740Z,18.95
2022-09-06T06:20:16.379Z,18.99
2022-09-06T06:21:21.155Z,18.95
2022-09-06T06:22:22.691Z,18.93
2022-09-06T06:23:24.148Z,18.88
2022-09-06T06:24:25.609Z,18.81
2022-09-06T06:25:27.104Z,18.72
2022-09-06T06:26:33.986Z,18.58
2022-09-06T06:27:35.455Z,18.61
2022-09-06T06:28:37.767Z,18.78
2022-09-06T06:29:39.251Z,19.04
2022-09-06T06:30:40.887Z,19.30
2022-09-06T06:31:42.441Z,19.48
2022-09-06T06:32:44.005Z,19.41
2022-09-06T06:33:45.568Z,19.22
2022-09-06T06:34:47.091Z,19.10
2022-09-06T06:35:58.330Z,18.94
2022-09-06T06:36:59.848Z,18.81
2022-09-06T06:38:01.343Z,18.76
2022-09-06T06:39:06.375Z,18.67
2022-09-06T06:40:08.752Z,18.59
2022-09-06T06:41:12.961Z,18.54
2022-09-06T06:42:14.526Z,18.42
2022-09-06T06:43:24.277Z,18.20
2022-09-06T06:44:25.972Z,18.09
2022-09-06T06:45:27.499Z,18.03
2022-09-06T06:46:31.451Z,17.87
2022-09-06T06:47:33.013Z,17.82
2022-09-06T06:48:35.119Z,17.76
2022-09-06T06:49:36.622Z,17.72
2022-09-06T06:50:38.095Z,17.64
2022-09-06T06:51:39.649Z,17.63
2022-09-06T06:52:41.157Z,17.61
2022-09-06T06:53:44.117Z,17.55
2022-09-06T06:54:45.625Z,17.49
2022-09-06T06:55:47.307Z,17.52
2022-09-06T06:56:48.828Z,17.50
2022-09-06T06:57:50.319Z,17.49
2022-09-06T06:58:54.870Z,17.54
2022-09-06T06:59:56.411Z,17.60
2022-09-06T07:00:58.012Z,17.62
2022-09-06T07:01:59.755Z,17.61
2022-09-06T07:03:01.331Z,17.64
2022-09-06T07:04:03.357Z,17.63
2022-09-06T07:07:48.691Z,17.88
2022-09-06T07:08:50.191Z,17.87
2022-09-06T07:11:15.844Z,17.89
2022-09-06T07:12:17.342Z,17.84
2022-09-06T07:13:18.853Z,17.88
2022-09-06T07:14:20.347Z,17.98
2022-09-06T07:15:21.811Z,18.05
2022-09-06T07:16:24.399Z,18.13
2022-09-06T07:17:25.976Z,18.05
2022-09-06T07:18:27.489Z,18.08
2022-09-06T07:22:13.711Z,17.93
2022-09-06T07:24:36.784Z,18.09
2022-09-06T07:25:38.288Z,18.14
2022-09-06T07:26:40.328Z,18.05
2022-09-06T07:28:47.128Z,18.16
2022-09-06T07:29:48.638Z,18.32
2022-09-06T07:30:53.920Z,18.55
2022-09-06T07:32:10.994Z,18.75
2022-09-06T07:33:12.779Z,18.90
2022-09-06T07:34:14.345Z,18.95
2022-09-06T07:35:16.185Z,19.02
2022-09-06T07:36:17.826Z,18.75
2022-09-06T07:37:19.348Z,18.74
2022-09-06T07:38:20.861Z,18.86
2022-09-06T07:39:22.777Z,18.99
2022-09-06T07:40:29.620Z,18.80
2022-09-06T07:41:31.128Z,18.84
2022-09-06T07:42:36.289Z,18.92
2022-09-06T07:43:38.412Z,18.98
2022-09-06T07:44:39.910Z,19.03
2022-09-06T07:45:41.388Z,19.14
2022-09-06T07:46:42.872Z,19.24
2022-09-06T07:47:59.887Z,19.30
2022-09-06T07:49:04.622Z,19.33
2022-09-06T07:51:27.855Z,19.42
2022-09-06T07:54:07.053Z,19.60
2022-09-06T07:55:14.912Z,19.74
2022-09-06T07:56:17.025Z,19.79
2022-09-06T07:57:18.547Z,19.81
2022-09-06T07:58:20.063Z,19.75
2022-09-06T07:59:21.575Z,19.76
2022-09-06T08:00:23.093Z,19.79
2022-09-06T08:01:32.880Z,19.87
2022-09-06T08:02:34.476Z,19.88
2022-09-06T08:03:36.030Z,19.88
2022-09-06T08:04:37.512Z,19.99
2022-09-06T08:09:43.434Z,20.04
2022-09-06T08:10:50.070Z,20.11
2022-09-06T08:11:51.561Z,20.17
2022-09-06T08:12:53.488Z,20.25
2022-09-06T08:13:57.007Z,20.30
2022-09-06T08:14:58.547Z,20.29
2022-09-06T08:16:07.885Z,20.29
2022-09-06T08:17:09.489Z,20.30
2022-09-06T08:18:11.773Z,20.26
2022-09-06T08:19:13.431Z,20.24
2022-09-06T08:20:15.203Z,20.27
2022-09-06T08:21:17.316Z,20.20
2022-09-06T08:22:18.805Z,20.18
2022-09-06T08:23:20.441Z,20.25
2022-09-06T08:24:21.955Z,20.30
2022-09-06T08:25:23.508Z,20.35
2022-09-06T08:26:26.123Z,20.41
2022-09-06T08:27:27.632Z,20.45
2022-09-06T08:28:29.131Z,20.44
2022-09-06T08:29:30.592Z,20.20
2022-09-06T08:30:33.170Z,20.13
2022-09-06T08:31:37.206Z,20.14
2022-09-06T08:32:38.798Z,20.14
2022-09-06T08:33:41.189Z,20.11
2022-09-06T08:34:42.677Z,20.09
2022-09-06T08:35:44.179Z,20.17
2022-09-06T08:36:45.672Z,20.22
2022-09-06T08:37:47.169Z,20.27
2022-09-06T08:38:48.734Z,20.32
2022-09-06T08:39:50.304Z,20.33
2022-09-06T08:40:53.719Z,20.33
2022-09-06T08:42:00.820Z,20.40
2022-09-06T08:43:02.377Z,20.48
2022-09-06T08:45:25.493Z,20.49
2022-09-06T08:46:38.022Z,20.55
2022-09-06T08:47:39.618Z,20.59
2022-09-06T08:48:41.198Z,20.59
2022-09-06T08:49:45.373Z,20.67
2022-09-06T08:50:59.230Z,20.71
2022-09-06T08:52:18.729Z,20.82
2022-09-06T08:53:20.392Z,20.85
2022-09-06T08:54:32.195Z,20.84
2022-09-06T08:55:44.210Z,20.95
2022-09-06T08:57:24.372Z,21.18
2022-09-06T08:59:02.432Z,21.34
2022-09-06T09:00:06.595Z,21.45
2022-09-06T09:01:25.080Z,21.53
2022-09-06T09:02:26.670Z,21.57
2022-09-06T09:03:37.957Z,21.58
2022-09-06T09:04:44.074Z,21.78
2022-09-06T09:05:50.196Z,21.99
2022-09-06T09:06:55.489Z,22.12
2022-09-06T09:07:56.908Z,22.10
2022-09-06T09:09:07.619Z,21.84
2022-09-06T09:10:16.012Z,21.84
2022-09-06T09:11:19.735Z,21.96
2022-09-06T09:12:23.685Z,21.92
2022-09-06T09:13:35.752Z,21.96
2022-09-06T09:14:41.189Z,21.88
2022-09-06T09:15:42.728Z,21.85
2022-09-06T09:16:44.432Z,21.94
2022-09-06T09:17:48.263Z,22.02
2022-09-06T09:18:53.080Z,22.13
2022-09-06T09:19:56.011Z,22.17
2022-09-06T09:20:58.834Z,22.23
2022-09-06T09:22:00.923Z,22.17
2022-09-06T09:23:02.509Z,22.08
2022-09-06T09:24:12.837Z,22.02
2022-09-06T09:25:23.786Z,21.97
2022-09-06T09:26:28.253Z,21.81
2022-09-06T09:27:32.153Z,21.65
2022-09-06T09:28:33.797Z,21.75
2022-09-06T09:31:33.454Z,21.98
2022-09-06T09:32:37.819Z,21.98
2022-09-06T09:33:39.345Z,22.02
2022-09-06T09:34:40.843Z,22.07
2022-09-06T09:35:42.467Z,21.89
2022-09-06T09:38:11.975Z,22.04
2022-09-06T09:39:13.810Z,22.03
2022-09-06T09:40:33.699Z,22.20
2022-09-06T09:41:37.951Z,22.22
2022-09-06T09:42:39.774Z,22.26
2022-09-06T09:43:42.220Z,22.33
2022-09-06T09:44:44.804Z,22.50
2022-09-06T09:45:47.095Z,22.56
2022-09-06T09:46:48.613Z,22.32
2022-09-06T09:47:50.399Z,22.28
2022-09-06T09:49:27.285Z,22.31
2022-09-06T09:50:32.084Z,22.28
2022-09-06T09:51:38.389Z,22.11
2022-09-06T09:52:44.638Z,22.13
2022-09-06T09:53:57.425Z,22.11
2022-09-06T09:55:05.276Z,22.21
2022-09-06T09:56:07.750Z,22.31
2022-09-06T09:57:12.215Z,22.42
2022-09-06T09:58:30.491Z,22.45
2022-09-06T09:59:40.895Z,22.61
2022-09-06T10:00:42.465Z,22.65
2022-09-06T10:01:44.418Z,22.73
2022-09-06T10:02:45.930Z,22.74
2022-09-06T10:05:12.198Z,22.91
2022-09-06T10:07:53.537Z,23.19
2022-09-06T10:08:55.181Z,23.17
2022-09-06T10:09:56.605Z,23.21
2022-09-06T10:10:58.521Z,23.23
2022-09-06T10:12:00.359Z,23.08
2022-09-06T10:13:23.258Z,23.11
2022-09-06T10:14:28.974Z,23.06
2022-09-06T10:15:36.228Z,23.07
2022-09-06T10:16:44.801Z,23.02
2022-09-06T10:17:51.418Z,23.09
2022-09-06T10:18:52.907Z,23.14
2022-09-06T10:19:54.698Z,23.23
2022-09-06T10:21:05.502Z,23.32
2022-09-06T10:22:19.014Z,23.34
2022-09-06T10:25:36.959Z,23.16
2022-09-06T10:26:38.424Z,23.24
2022-09-06T10:28:11.291Z,23.22
2022-09-06T10:29:13.864Z,23.16
2022-09-06T10:30:15.427Z,23.15
2022-09-06T10:31:16.893Z,23.17
2022-09-06T10:32:53.648Z,23.23
2022-09-06T10:34:48.506Z,23.30
2022-09-06T10:35:49.998Z,23.39
2022-09-06T10:37:06.103Z,23.39
2022-09-06T10:38:34.107Z,23.35
2022-09-06T10:40:06.110Z,23.44
2022-09-06T10:41:39.396Z,23.32
2022-09-06T10:42:48.660Z,23.07
2022-09-06T10:44:05.225Z,23.12
2022-09-06T10:45:28.541Z,23.25
2022-09-06T10:46:34.768Z,23.38
2022-09-06T10:48:11.290Z,23.24
2022-09-06T10:49:19.496Z,23.18
2022-09-06T10:50:33.558Z,23.32
2022-09-06T10:52:10.396Z,23.19
2022-09-06T10:53:36.259Z,23.16
2022-09-06T10:54:41.106Z,23.20
2022-09-06T10:55:48.746Z,23.16
2022-09-06T10:56:58.435Z,23.16
2022-09-06T10:58:19.788Z,23.24
2022-09-06T11:00:46.028Z,23.35
2022-09-06T11:02:14.200Z,23.43
2022-09-06T11:06:29.525Z,23.35
2022-09-06T11:07:33.361Z,23.43
2022-09-06T11:09:18.001Z,23.53
2022-09-06T11:10:27.766Z,23.41
2022-09-06T11:11:50.763Z,23.42
2022-09-06T11:13:15.490Z,23.41
2022-09-06T11:14:20.976Z,23.41
2022-09-06T11:15:24.970Z,23.55
2022-09-06T11:16:31.183Z,23.64
2022-09-06T11:17:46.967Z,23.79
2022-09-06T11:19:10.289Z,23.83
2022-09-06T11:20:20.102Z,23.98
2022-09-06T11:21:52.194Z,24.20
2022-09-06T11:22:56.604Z,24.34
2022-09-06T11:24:30.395Z,24.22
2022-09-06T11:25:55.231Z,24.15
2022-09-06T11:27:20.956Z,23.93
2022-09-06T11:28:33.809Z,23.86
2022-09-06T11:29:40.630Z,23.99
2022-09-06T11:30:46.654Z,24.02
2022-09-06T11:33:29.059Z,23.89
2022-09-06T11:34:37.692Z,24.02
2022-09-06T11:35:41.048Z,24.03
2022-09-06T11:36:48.597Z,23.89
2022-09-06T11:38:00.359Z,23.83
2022-09-06T11:39:04.633Z,23.82
2022-09-06T11:40:32.647Z,23.72
2022-09-06T11:41:40.315Z,23.62
2022-09-06T11:42:44.538Z,23.69
2022-09-06T11:43:49.808Z,23.62
2022-09-06T11:44:54.195Z,23.62
2022-09-06T11:45:55.781Z,23.57
2022-09-06T11:46:58.522Z,23.60
2022-09-06T11:48:22.707Z,23.48
2022-09-06T11:49:33.299Z,23.54
2022-09-06T11:50:53.103Z,23.55
2022-09-06T11:51:55.236Z,23.57
2022-09-06T11:53:08.880Z,23.49
2022-09-06T11:54:19.267Z,23.55
2022-09-06T11:55:23.055Z,23.65
2022-09-06T11:56:36.749Z,23.73
2022-09-06T11:57:41.082Z,23.81
2022-09-06T11:59:06.533Z,23.93
2022-09-06T12:00:18.875Z,23.97
2022-09-06T12:01:20.320Z,24.05
2022-09-06T12:02:39.818Z,24.09
2022-09-06T12:05:04.036Z,24.22
2022-09-06T12:06:30.001Z,24.26
2022-09-06T12:07:33.420Z,24.32
2022-09-06T12:08:34.952Z,24.40
2022-09-06T12:09:43.996Z,24.44
2022-09-06T12:11:20.176Z,24.54
2022-09-06T12:12:41.795Z,24.51
2022-09-06T12:13:46.091Z,24.43
2022-09-06T12:14:48.232Z,24.42
2022-09-06T12:15:55.040Z,24.45
2022-09-06T12:16:59.323Z,24.32
2022-09-06T12:18:00.877Z,24.30
2022-09-06T12:19:02.581Z,24.32
2022-09-06T12:20:05.081Z,24.39
2022-09-06T12:21:06.839Z,24.48
2022-09-06T12:22:28.237Z,24.57
2022-09-06T12:23:35.536Z,24.64
2022-09-06T12:24:36.967Z,24.52
2022-09-06T12:25:38.385Z,24.31
2022-09-06T12:26:55.344Z,24.29
2022-09-06T12:28:00.590Z,24.30
2022-09-06T12:29:10.319Z,24.36
2022-09-06T12:30:13.542Z,24.44
2022-09-06T12:31:39.589Z,24.39
2022-09-06T12:32:44.336Z,24.35
2022-09-06T12:33:46.949Z,24.24
2022-09-06T12:36:12.881Z,24.47
2022-09-06T12:37:14.405Z,24.42
2022-09-06T12:38:16.491Z,24.41
2022-09-06T12:39:18.091Z,24.46
2022-09-06T12:40:20.957Z,24.44
2022-09-06T12:41:23.317Z,24.49
2022-09-06T12:42:25.621Z,24.51
2022-09-06T12:43:27.225Z,24.55
2022-09-06T12:44:35.373Z,24.55
2022-09-06T12:45:42.997Z,24.52
2022-09-06T12:46:49.968Z,24.47
2022-09-06T12:48:06.953Z,24.50
2022-09-06T12:49:10.958Z,24.45
2022-09-06T12:50:22.394Z,24.51
2022-09-06T12:51:23.809Z,24.48
2022-09-06T12:52:25.305Z,24.40
2022-09-06T12:53:26.761Z,24.27
2022-09-06T12:54:28.301Z,24.20
2022-09-06T12:55:38.188Z,24.07
2022-09-06T12:56:39.655Z,24.09
2022-09-06T12:57:47.743Z,24.03
2022-09-06T12:58:49.397Z,24.00
2022-09-06T12:59:53.893Z,23.91
2022-09-06T13:00:59.419Z,23.90
2022-09-06T13:02:18.799Z,23.87
2022-09-06T13:03:29.318Z,23.94
2022-09-06T13:04:43.924Z,24.00
2022-09-06T13:05:46.468Z,23.98
2022-09-06T13:06:48.449Z,23.85
2022-09-06T13:07:55.747Z,23.81
2022-09-06T13:08:58.682Z,23.75
2022-09-06T13:10:00.388Z,23.75
2022-09-06T13:11:07.956Z,23.83
2022-09-06T13:12:26.996Z,23.94
2022-09-06T13:13:28.750Z,23.96
2022-09-06T13:14:33.043Z,24.09
2022-09-06T13:15:34.657Z,24.21
2022-09-06T13:16:45.142Z,24.31
2022-09-06T13:17:46.682Z,24.34
2022-09-06T13:18:48.361Z,24.36
2022-09-06T13:19:50.006Z,24.40
2022-09-06T13:21:06.026Z,24.45
2022-09-06T13:22:09.920Z,24.45
2022-09-06T13:23:19.897Z,24.45
2022-09-06T13:24:24.979Z,24.30
2022-09-06T13:25:26.525Z,24.31
2022-09-06T13:26:40.545Z,24.36
2022-09-06T13:27:46.544Z,24.47
2022-09-06T13:28:48.090Z,24.46
2022-09-06T13:30:01.086Z,24.50
2022-09-06T13:31:13.642Z,24.44
2022-09-06T13:32:15.142Z,24.39
2022-09-06T13:33:26.552Z,24.45
2022-09-06T13:34:29.533Z,24.50
2022-09-06T13:35:33.919Z,24.44
2022-09-06T13:36:35.679Z,24.41
2022-09-06T13:37:37.189Z,24.42
2022-09-06T13:38:38.638Z,24.47
2022-09-06T13:39:43.533Z,24.54
2022-09-06T13:41:09.271Z,24.55
2022-09-06T13:42:09.706Z,24.60
2022-09-06T13:43:14.662Z,24.56
2022-09-06T13:44:16.105Z,24.57
2022-09-06T13:45:31.559Z,24.67
2022-09-06T13:46:33.504Z,24.66
2022-09-06T13:47:35.070Z,24.69
2022-09-06T13:48:36.729Z,24.68
2022-09-06T13:49:38.310Z,24.65
2022-09-06T13:50:41.155Z,24.65
2022-09-06T13:51:42.632Z,24.59
2022-09-06T13:52:44.118Z,24.63
2022-09-06T13:53:45.909Z,24.63
2022-09-06T13:54:47.392Z,24.67
2022-09-06T13:55:48.904Z,24.67
2022-09-06T13:56:50.432Z,24.49
2022-09-06T13:57:51.956Z,24.46
2022-09-06T13:58:53.427Z,24.46
2022-09-06T13:59:54.948Z,24.39
2022-09-06T14:00:56.771Z,24.25
2022-09-06T14:02:07.128Z,24.27
2022-09-06T14:03:12.572Z,24.26
2022-09-06T14:04:20.313Z,24.17
2022-09-06T14:05:21.839Z,24.24
2022-09-06T14:06:23.307Z,24.23
2022-09-06T14:07:24.826Z,24.25
2022-09-06T14:08:43.854Z,24.27
2022-09-06T14:09:51.756Z,24.37
2022-09-06T14:10:53.285Z,24.47
2022-09-06T14:11:54.908Z,24.58
2022-09-06T14:12:56.358Z,24.56
2022-09-06T14:13:57.824Z,24.57
2022-09-06T14:14:59.271Z,24.61
2022-09-06T14:16:00.930Z,24.63
2022-09-06T14:17:02.519Z,24.64
2022-09-06T14:18:04.156Z,24.58
2022-09-06T14:19:05.797Z,24.59
2022-09-06T14:20:07.834Z,24.60
2022-09-06T14:21:09.312Z,24.60
2022-09-06T14:22:10.937Z,24.59
2022-09-06T14:23:12.399Z,24.49
2022-09-06T14:24:13.930Z,24.43
2022-09-06T14:25:15.438Z,24.40
2022-09-06T14:26:17.361Z,24.37
2022-09-06T14:27:18.820Z,24.38
2022-09-06T14:28:20.383Z,24.37
2022-09-06T14:29:21.902Z,24.28
2022-09-06T14:30:23.371Z,24.22
2022-09-06T14:31:26.902Z,24.24
2022-09-06T14:32:28.484Z,24.18
2022-09-06T14:33:31.124Z,24.12
2022-09-06T14:34:32.631Z,24.05
2022-09-06T14:35:34.132Z,24.00
2022-09-06T14:36:35.658Z,23.96
2022-09-06T14:37:37.417Z,23.88
2022-09-06T14:38:40.936Z,23.90
2022-09-06T14:39:42.478Z,23.93